Airfield :
LOGIN :

Register | Disclaimer

   EN    FR    IT 

 










Legend :    VFR   Marginal VFR   IFR   Intensive IFR   Very Intensive IFR
Visi :
Ceiling :
>= 8 km
>= 3000ft
5 to 8 km
1000 to 3000 ft
1500m to 5 km
500 to 1000 ft
800 to 1500m
200 to 500 ft
< 800m
< 200 ft
Symbols :   Thunderstorms  Fog  Heavy snow  Heavy precipitations  Wind > 20 kt
SIGMETs :     Misc.  Thunderstorms  Icing  Turbulence  Mountain Waves  Volcanic Ashes







- Airport Elevation : 15 ft
- IATA code : FCO


LIRF - Roma Leonardo da Vinci Fiumicino

CURRENT METAR :
  • 230520Z 07003KT 9999 FEW040 07/05 Q1019 NOSIG

EXPIRED METARs :
  • 230450Z 08003KT 9999 FEW040 05/03 Q1019 NOSIG
  • 230420Z 11003KT 9999 FEW040 05/03 Q1019 NOSIG
  • 230350Z 09003KT CAVOK 05/04 Q1019 NOSIG
  • 230320Z 07003KT CAVOK 06/03 Q1019 NOSIG
  • 230250Z 10004KT CAVOK 06/04 Q1019 NOSIG
  • 230220Z 08005KT CAVOK 05/03 Q1019 NOSIG

TAF TAF LIRF
Valid from the 23 at 00:00 until the 24 at 06:00 UTC


222300Z 2300/2406 VRB05KT CAVOK
BECMG 2309/2312 25013KT
BECMG 2318/2321 06008KT
No reported NOTAMs for that airfield.



MET'MAP, your aeronautical weather chart ! - Copyright ORBIFLY December 2007 - Disclaimer

ORBIFLY MET'MAP TEAM :

Programming & Development : Alexandra Zaïnal
Concept & Development : Baudouin d'Aumeries
Co-Development & Prog : Marc-Olivier Méhu
Technical & hardware support : Manuel Goepfert

Contact : metmap@orbifly.com




SOURCES & CREDITS :

   NOAA